LYBE/BEG METAR and TAF weather

Enter ICAO airport designator
Station Type Date Time Source
LYBE METAR 2017/06/26 00:00 UTC NOAA

LYBE 260000Z 34002KT CAVOK 20/19 Q1013 NOSIG


Station Type Date Time Source
LYBE Decoded METAR 2017/06/26 00:00 UTC NOAA

Beograd / Surcin, Serbia and Montenegro (LYBE) 44-49N 020-17E 99M
Jun 25, 2017 - 08:00 PM EDT / 2017.06.26 0000 UTC
Wind: from the NNW (340 degrees) at 2 MPH (2 KT):0
Visibility: greater than 7 mile(s):0
Temperature: 68 F (20 C)
Dew Point: 66 F (19 C)
Relative Humidity: 93%
Pressure (altimeter): 29.91 in. Hg (1013 hPa)
ob: LYBE 260000Z 34002KT CAVOK 20/19 Q1013 NOSIG
cycle: 0

Station Type Date Time Source
LYBE TAF 2017/06/25 18:21 UTC NOAA

TAF LYBE 251700Z 2518/2618 14012KT CAVOK TX32/2518Z TN20/2604Z
BECMG 2523/2601 30010KT
TEMPO 2523/2607 SHRA SCT033TCU SCT040 PROB40
TEMPO 2523/2603 33015G30KT 5000 TSRA SCT030CB BKN033


Example: see airport list